createdAt,value
2022-09-06T00:02:52.612Z,88.5
2022-09-06T00:07:52.573Z,88.5
2022-09-06T00:12:52.583Z,88.6
2022-09-06T00:17:52.575Z,88.2
2022-09-06T00:22:52.576Z,87.7
2022-09-06T00:27:52.580Z,87.2
2022-09-06T00:32:52.566Z,86.8
2022-09-06T00:37:52.585Z,86.8
2022-09-06T00:42:52.567Z,87.5
2022-09-06T00:47:52.577Z,87.9
2022-09-06T00:52:52.594Z,87.6
2022-09-06T00:57:52.592Z,88.7
2022-09-06T01:02:52.609Z,89.1
2022-09-06T01:07:52.593Z,89.3
2022-09-06T01:12:52.573Z,90.6
2022-09-06T01:17:52.611Z,91.5
2022-09-06T01:22:52.589Z,91.2
2022-09-06T01:27:52.594Z,91.5
2022-09-06T01:32:52.558Z,91.3
2022-09-06T01:37:52.610Z,91.3
2022-09-06T01:42:52.606Z,91.2
2022-09-06T01:47:52.606Z,91.0
2022-09-06T01:52:52.598Z,91.6
2022-09-06T01:57:52.617Z,91.7
2022-09-06T02:02:52.698Z,91.3
2022-09-06T02:07:52.628Z,91.4
2022-09-06T02:12:52.600Z,92.4
2022-09-06T02:17:52.616Z,93.1
2022-09-06T02:22:52.623Z,94.1
2022-09-06T02:27:52.621Z,94.4
2022-09-06T02:32:52.613Z,94.3
2022-09-06T02:37:52.624Z,94.7
2022-09-06T02:42:52.611Z,95.1
2022-09-06T02:47:52.599Z,95.8
2022-09-06T02:52:52.641Z,96.9
2022-09-06T02:57:52.630Z,97.6
2022-09-06T03:02:52.632Z,97.3
2022-09-06T03:07:52.636Z,97.6
2022-09-06T03:12:52.599Z,98.2
2022-09-06T03:22:52.679Z,97.0
2022-09-06T03:27:52.636Z,97.1
2022-09-06T03:32:52.645Z,97.3
2022-09-06T03:37:52.639Z,96.8
2022-09-06T03:42:52.638Z,96.4
2022-09-06T03:47:52.643Z,97.5
2022-09-06T03:52:52.644Z,98.2
2022-09-06T03:57:52.637Z,98.6
2022-09-06T04:02:52.652Z,97.8
2022-09-06T04:07:52.646Z,98.3
2022-09-06T04:12:52.650Z,98.1
2022-09-06T04:17:52.675Z,98.1
2022-09-06T04:22:52.641Z,97.8
2022-09-06T04:27:52.650Z,97.6
2022-09-06T04:32:52.645Z,97.1
2022-09-06T04:37:52.654Z,96.6
2022-09-06T04:42:52.663Z,97.5
2022-09-06T04:47:52.665Z,97.4
2022-09-06T04:52:52.642Z,97.6
2022-09-06T04:57:52.670Z,97.5
2022-09-06T05:02:52.654Z,97.3
2022-09-06T05:07:52.655Z,97.0
2022-09-06T05:12:52.662Z,97.3
2022-09-06T05:17:52.660Z,97.5
2022-09-06T05:22:52.654Z,97.4
2022-09-06T05:27:52.668Z,97.3
2022-09-06T05:32:52.651Z,96.8
2022-09-06T05:37:52.702Z,96.7
2022-09-06T05:42:52.664Z,97.1
2022-09-06T05:47:52.672Z,97.0
2022-09-06T05:52:52.661Z,97.0
2022-09-06T05:57:52.688Z,96.0
2022-09-06T06:02:52.669Z,93.6
2022-09-06T06:07:52.682Z,90.8
2022-09-06T06:12:52.672Z,89.8
2022-09-06T06:17:52.691Z,88.8
2022-09-06T06:22:52.665Z,87.4
2022-09-06T06:27:52.687Z,85.7
2022-09-06T06:32:52.665Z,84.1
2022-09-06T06:37:52.682Z,82.9
2022-09-06T06:42:52.684Z,83.1
2022-09-06T06:47:52.678Z,82.4
2022-09-06T06:52:52.669Z,83.4
2022-09-06T06:57:52.682Z,85.0
2022-09-06T07:02:52.673Z,86.8
2022-09-06T07:07:52.697Z,87.9
2022-09-06T07:12:52.692Z,88.7
2022-09-06T07:17:52.681Z,88.8
2022-09-06T07:22:52.692Z,89.5
2022-09-06T07:27:52.693Z,90.0
2022-09-06T07:32:52.691Z,90.1
2022-09-06T07:37:52.693Z,91.2
2022-09-06T07:42:52.696Z,90.8
2022-09-06T07:53:10.962Z,91.1
2022-09-06T07:57:52.696Z,92.5
2022-09-06T08:02:52.686Z,92.6
2022-09-06T08:12:52.695Z,92.9
2022-09-06T08:17:52.704Z,93.4
2022-09-06T08:22:52.699Z,94.3
2022-09-06T08:27:52.691Z,94.8
2022-09-06T08:32:52.714Z,95.8
2022-09-06T08:37:52.686Z,96.1
2022-09-06T08:42:52.707Z,95.9
2022-09-06T08:47:52.714Z,95.6
2022-09-06T08:53:06.552Z,95.2
2022-09-06T08:57:52.703Z,95.1
2022-09-06T09:02:52.705Z,95.3
2022-09-06T09:07:52.705Z,95.6
2022-09-06T09:12:52.707Z,96.5
2022-09-06T09:17:52.697Z,98.1
2022-09-06T09:22:52.710Z,99.2
2022-09-06T09:27:52.711Z,100.0
2022-09-06T09:32:52.708Z,100.0
2022-09-06T09:37:56.014Z,100.0
2022-09-06T09:42:52.700Z,100.0
2022-09-06T09:47:52.703Z,100.0
2022-09-06T09:52:52.711Z,100.0
2022-09-06T09:57:52.716Z,100.0
2022-09-06T10:02:52.700Z,99.8
2022-09-06T10:07:52.718Z,99.1
2022-09-06T10:12:52.694Z,97.9
2022-09-06T10:17:52.711Z,97.3
2022-09-06T10:22:52.716Z,97.1
2022-09-06T10:28:10.505Z,96.8
2022-09-06T10:32:52.704Z,96.3
2022-09-06T10:37:52.716Z,95.9
2022-09-06T10:42:52.698Z,96.0
2022-09-06T10:47:52.715Z,96.6
2022-09-06T10:52:52.704Z,97.4
2022-09-06T10:58:17.529Z,98.9
2022-09-06T11:12:52.708Z,100.0
2022-09-06T11:17:52.706Z,100.0
2022-09-06T11:22:52.714Z,100.0
2022-09-06T11:27:57.330Z,100.0
2022-09-06T11:32:52.726Z,100.0
2022-09-06T11:37:52.720Z,100.0
2022-09-06T11:42:52.705Z,100.0
2022-09-06T11:47:52.723Z,100.0
2022-09-06T11:52:52.705Z,100.0
2022-09-06T11:57:52.725Z,100.0
2022-09-06T12:02:53.221Z,99.5
2022-09-06T12:07:52.735Z,96.6
2022-09-06T12:12:52.759Z,92.7
2022-09-06T12:17:52.742Z,92.0
2022-09-06T12:22:52.748Z,91.9
2022-09-06T12:27:52.733Z,91.3
2022-09-06T12:32:52.744Z,89.5
2022-09-06T12:37:52.743Z,87.4
2022-09-06T12:42:52.785Z,85.7
2022-09-06T12:47:52.733Z,83.8
2022-09-06T12:52:52.747Z,82.7
2022-09-06T12:57:52.740Z,81.4
2022-09-06T13:02:52.803Z,80.2
2022-09-06T13:07:52.746Z,79.3
2022-09-06T13:12:52.743Z,77.8
2022-09-06T13:17:52.749Z,76.4
2022-09-06T13:22:52.735Z,75.7
2022-09-06T13:27:52.753Z,74.4
2022-09-06T13:32:52.746Z,73.2
2022-09-06T13:37:52.742Z,71.9
2022-09-06T13:42:52.758Z,70.2
2022-09-06T13:47:59.945Z,69.4
2022-09-06T13:52:52.747Z,68.9
2022-09-06T13:57:52.759Z,68.5
2022-09-06T14:02:52.780Z,68.7
2022-09-06T14:07:52.764Z,68.6
2022-09-06T14:12:52.757Z,68.3
2022-09-06T14:17:52.768Z,67.2
2022-09-06T14:22:52.763Z,66.9
2022-09-06T14:27:52.776Z,66.2
2022-09-06T14:32:52.773Z,65.4
2022-09-06T14:37:52.765Z,64.2
2022-09-06T14:42:52.782Z,63.3
2022-09-06T14:47:52.778Z,63.1
2022-09-06T14:52:52.782Z,62.7
2022-09-06T14:57:52.767Z,61.5
2022-09-06T15:02:52.846Z,61.1
2022-09-06T15:07:52.770Z,60.5
2022-09-06T15:12:52.782Z,60.1
2022-09-06T15:17:52.789Z,59.9
2022-09-06T15:23:03.886Z,59.4
2022-09-06T15:27:52.788Z,59.6
2022-09-06T15:32:52.790Z,61.1
2022-09-06T15:37:52.877Z,62.5
2022-09-06T15:42:52.796Z,63.5
2022-09-06T15:47:52.828Z,64.5
2022-09-06T15:52:52.782Z,67.1
2022-09-06T15:57:52.812Z,69.7
2022-09-06T16:02:52.830Z,71.5
2022-09-06T16:07:52.815Z,72.6
2022-09-06T16:12:52.806Z,73.6
2022-09-06T16:17:52.810Z,74.6
2022-09-06T16:22:52.798Z,75.7
2022-09-06T16:27:52.827Z,76.5
2022-09-06T16:32:52.803Z,77.1
2022-09-06T16:37:52.813Z,77.7
2022-09-06T16:42:52.810Z,78.0
2022-09-06T16:47:52.813Z,77.9
2022-09-06T16:52:52.806Z,78.0
2022-09-06T16:57:52.849Z,78.3
2022-09-06T17:02:52.867Z,78.4
2022-09-06T17:07:52.826Z,78.0
2022-09-06T17:12:52.830Z,77.6
2022-09-06T17:17:52.831Z,77.6
2022-09-06T17:22:52.863Z,77.6
2022-09-06T17:27:52.832Z,77.3
2022-09-06T17:32:52.819Z,77.4
2022-09-06T17:37:52.835Z,77.7
2022-09-06T17:42:52.850Z,78.5
2022-09-06T17:47:52.864Z,80.2
2022-09-06T17:52:52.933Z,81.4
2022-09-06T17:57:52.855Z,82.3
2022-09-06T18:02:52.861Z,82.9
2022-09-06T18:07:52.921Z,83.3
2022-09-06T18:12:52.887Z,83.6
2022-09-06T18:17:52.869Z,83.9
2022-09-06T18:22:52.861Z,84.2
2022-09-06T18:27:52.840Z,84.5
2022-09-06T18:32:52.953Z,84.8
2022-09-06T18:37:52.863Z,85.4
2022-09-06T18:42:52.932Z,86.3
2022-09-06T18:47:52.850Z,87.0
2022-09-06T18:52:52.877Z,87.1
2022-09-06T18:57:52.882Z,87.7
2022-09-06T19:02:52.844Z,88.3
2022-09-06T19:07:52.868Z,88.8
2022-09-06T19:12:53.508Z,89.4
2022-09-06T19:17:52.870Z,89.8
2022-09-06T19:22:52.889Z,90.0
2022-09-06T19:27:52.888Z,90.4
2022-09-06T19:32:52.862Z,90.3
2022-09-06T19:37:52.862Z,90.0
2022-09-06T19:42:52.866Z,90.0
2022-09-06T19:47:52.858Z,89.9
2022-09-06T19:52:52.864Z,89.9
2022-09-06T19:57:52.872Z,89.7
2022-09-06T20:02:52.864Z,89.6
2022-09-06T20:07:52.863Z,89.5
2022-09-06T20:12:52.915Z,89.5
2022-09-06T20:17:52.889Z,89.4
2022-09-06T20:22:52.868Z,89.2
2022-09-06T20:27:52.904Z,89.2
2022-09-06T20:32:52.866Z,89.3
2022-09-06T20:37:52.881Z,89.5
2022-09-06T20:42:52.881Z,89.4
2022-09-06T20:47:52.889Z,89.5
2022-09-06T20:52:52.884Z,89.3
2022-09-06T20:57:52.930Z,89.2
2022-09-06T21:02:52.870Z,88.8
2022-09-06T21:07:52.897Z,88.9
2022-09-06T21:12:52.894Z,88.6
2022-09-06T21:17:52.889Z,88.3
2022-09-06T21:22:52.900Z,88.4
2022-09-06T21:27:55.751Z,88.4
2022-09-06T21:32:52.905Z,88.3
2022-09-06T21:37:52.902Z,88.4
2022-09-06T21:42:52.911Z,88.4
2022-09-06T21:47:52.892Z,88.3
2022-09-06T21:52:52.905Z,88.4
2022-09-06T21:57:52.912Z,88.4
2022-09-06T22:02:52.901Z,88.5
2022-09-06T22:07:52.920Z,88.5
2022-09-06T22:12:52.899Z,88.4
2022-09-06T22:17:52.926Z,88.5
2022-09-06T22:22:52.913Z,88.6
2022-09-06T22:27:52.922Z,88.7
2022-09-06T22:32:52.905Z,88.6
2022-09-06T22:37:52.917Z,88.8
2022-09-06T22:42:52.916Z,88.8
2022-09-06T22:47:52.923Z,89.2
2022-09-06T22:52:52.916Z,89.8
2022-09-06T22:57:52.933Z,90.2
2022-09-06T23:02:52.920Z,90.6
2022-09-06T23:07:52.924Z,91.1
2022-09-06T23:12:52.931Z,91.5
2022-09-06T23:17:52.930Z,91.7
2022-09-06T23:22:52.927Z,91.8
2022-09-06T23:27:52.940Z,92.0
2022-09-06T23:32:52.922Z,92.4
2022-09-06T23:37:52.945Z,92.8
2022-09-06T23:42:52.926Z,93.0
2022-09-06T23:47:52.950Z,93.2
2022-09-06T23:52:52.945Z,93.5
2022-09-06T23:57:52.948Z,93.6
